sensor_id;sensor_type;location;lat;lon;timestamp;pressure;altitude;pressure_sealevel;temperature;humidity
44144;BME280;43510;51.920;4.492;2022-11-20T00:01:20;66062.03;;;1.72;84.03
44144;BME280;43510;51.920;4.492;2022-11-20T00:03:46;66058.88;;;1.71;83.49
44144;BME280;43510;51.920;4.492;2022-11-20T00:06:15;66066.63;;;1.78;83.88
44144;BME280;43510;51.920;4.492;2022-11-20T00:08:41;66057.41;;;1.72;83.87
44144;BME280;43510;51.920;4.492;2022-11-20T00:11:09;66060.16;;;1.75;83.97
44144;BME280;43510;51.920;4.492;2022-11-20T00:13:34;66052.59;;;1.63;83.27
44144;BME280;43510;51.920;4.492;2022-11-20T00:16:04;66068.84;;;1.80;83.39
44144;BME280;43510;51.920;4.492;2022-11-20T00:18:30;66067.72;;;1.79;83.49
44144;BME280;43510;51.920;4.492;2022-11-20T00:21:05;66070.69;;;1.84;83.59
44144;BME280;43510;51.920;4.492;2022-11-20T00:23:31;66061.28;;;1.76;83.45
44144;BME280;43510;51.920;4.492;2022-11-20T00:26:01;66064.06;;;1.78;84.22
44144;BME280;43510;51.920;4.492;2022-11-20T00:28:27;66059.63;;;1.74;83.67
44144;BME280;43510;51.920;4.492;2022-11-20T00:31:03;66068.13;;;1.77;83.88
44144;BME280;43510;51.920;4.492;2022-11-20T00:33:30;66070.31;;;1.79;83.21
44144;BME280;43510;51.920;4.492;2022-11-20T00:36:00;66060.72;;;1.75;83.27
44144;BME280;43510;51.920;4.492;2022-11-20T00:38:26;66062.03;;;1.72;83.03
44144;BME280;43510;51.920;4.492;2022-11-20T00:40:59;66053.91;;;1.67;83.62
44144;BME280;43510;51.920;4.492;2022-11-20T00:43:25;66054.44;;;1.67;83.75
44144;BME280;43510;51.920;4.492;2022-11-20T00:45:59;66051.34;;;1.67;83.67
44144;BME280;43510;51.920;4.492;2022-11-20T00:48:25;66046.88;;;1.62;84.09
44144;BME280;43510;51.920;4.492;2022-11-20T00:50:50;66051.50;;;1.62;83.76
44144;BME280;43510;51.920;4.492;2022-11-20T00:53:16;66058.88;;;1.71;83.85
44144;BME280;43510;51.920;4.492;2022-11-20T00:55:41;66055.56;;;1.68;84.00
44144;BME280;43510;51.920;4.492;2022-11-20T00:58:07;66050.03;;;1.63;83.72
44144;BME280;43510;51.920;4.492;2022-11-20T01:00:32;66052.97;;;1.61;84.37
44144;BME280;43510;51.920;4.492;2022-11-20T01:02:57;66036.19;;;1.50;84.08
44144;BME280;43510;51.920;4.492;2022-11-20T01:05:23;66049.31;;;1.60;84.55
44144;BME280;43510;51.920;4.492;2022-11-20T01:07:48;66044.50;;;1.58;84.35
44144;BME280;43510;51.920;4.492;2022-11-20T01:10:13;66038.97;;;1.53;84.84
44144;BME280;43510;51.920;4.492;2022-11-20T01:12:39;66039.34;;;1.51;85.17
44144;BME280;43510;51.920;4.492;2022-11-20T01:15:04;66042.09;;;1.53;85.03
44144;BME280;43510;51.920;4.492;2022-11-20T01:17:31;66036.38;;;1.53;85.06
44144;BME280;43510;51.920;4.492;2022-11-20T01:19:57;66044.84;;;1.56;85.66
44144;BME280;43510;51.920;4.492;2022-11-20T01:22:22;66038.22;;;1.50;85.42
44144;BME280;43510;51.920;4.492;2022-11-20T01:24:47;66039.13;;;1.55;86.09
44144;BME280;43510;51.920;4.492;2022-11-20T01:27:14;66037.84;;;1.52;86.10
44144;BME280;43510;51.920;4.492;2022-11-20T01:29:39;66041.34;;;1.50;86.20
44144;BME280;43510;51.920;4.492;2022-11-20T01:32:05;66045.97;;;1.57;85.87
44144;BME280;43510;51.920;4.492;2022-11-20T01:34:32;66040.09;;;1.54;86.15
44144;BME280;43510;51.920;4.492;2022-11-20T01:36:57;66045.22;;;1.61;86.48
44144;BME280;43510;51.920;4.492;2022-11-20T01:39:24;66045.59;;;1.59;86.47
44144;BME280;43510;51.920;4.492;2022-11-20T01:41:51;66038.59;;;1.55;86.60
44144;BME280;43510;51.920;4.492;2022-11-20T01:44:58;66051.88;;;1.67;87.57
44144;BME280;43510;51.920;4.492;2022-11-20T01:47:34;66044.50;;;1.58;87.83
44144;BME280;43510;51.920;4.492;2022-11-20T01:50:08;66049.84;;;1.60;88.08
44144;BME280;43510;51.920;4.492;2022-11-20T01:52:47;66053.34;;;1.66;88.58
44144;BME280;43510;51.920;4.492;2022-11-20T01:55:20;66055.38;;;1.66;88.59
44144;BME280;43510;51.920;4.492;2022-11-20T01:57:48;66053.16;;;1.63;88.73
44144;BME280;43510;51.920;4.492;2022-11-20T02:00:17;66056.50;;;1.67;88.76
44144;BME280;43510;51.920;4.492;2022-11-20T02:02:47;66051.13;;;1.64;88.77
44144;BME280;43510;51.920;4.492;2022-11-20T02:07:50;66054.84;;;1.65;88.48
44144;BME280;43510;51.920;4.492;2022-11-20T02:10:16;66057.03;;;1.67;88.46
44144;BME280;43510;51.920;4.492;2022-11-20T02:12:41;66051.69;;;1.64;88.77
44144;BME280;43510;51.920;4.492;2022-11-20T02:15:25;66050.03;;;1.63;88.50
44144;BME280;43510;51.920;4.492;2022-11-20T02:17:50;66055.56;;;1.68;88.66
44144;BME280;43510;51.920;4.492;2022-11-20T02:20:16;66052.97;;;1.68;88.53
44144;BME280;43510;51.920;4.492;2022-11-20T02:22:50;66052.81;;;1.66;89.48
44144;BME280;43510;51.920;4.492;2022-11-20T02:25:19;66058.69;;;1.69;88.83
44144;BME280;43510;51.920;4.492;2022-11-20T02:27:45;66058.88;;;1.71;89.15
44144;BME280;43510;51.920;4.492;2022-11-20T02:30:10;66053.53;;;1.69;89.21
44144;BME280;43510;51.920;4.492;2022-11-20T02:32:36;66056.66;;;1.69;89.43
44144;BME280;43510;51.920;4.492;2022-11-20T02:37:43;66064.06;;;1.78;89.19
44144;BME280;43510;51.920;4.492;2022-11-20T02:40:10;66068.47;;;1.75;89.37
44144;BME280;43510;51.920;4.492;2022-11-20T02:42:36;66069.22;;;1.78;89.99
44144;BME280;43510;51.920;4.492;2022-11-20T02:45:02;66065.53;;;1.77;89.54
44144;BME280;43510;51.920;4.492;2022-11-20T02:47:28;66062.75;;;1.75;89.35
44144;BME280;43510;51.920;4.492;2022-11-20T02:49:53;66064.78;;;1.74;89.50
44144;BME280;43510;51.920;4.492;2022-11-20T02:52:18;66064.78;;;1.74;89.56
44144;BME280;43510;51.920;4.492;2022-11-20T02:54:44;66063.50;;;1.78;89.14
44144;BME280;43510;51.920;4.492;2022-11-20T02:57:09;66061.28;;;1.76;89.31
44144;BME280;43510;51.920;4.492;2022-11-20T02:59:34;66057.59;;;1.68;89.89
44144;BME280;43510;51.920;4.492;2022-11-20T03:02:00;66057.97;;;1.66;89.90
44144;BME280;43510;51.920;4.492;2022-11-20T03:04:25;66052.81;;;1.66;89.68
44144;BME280;43510;51.920;4.492;2022-11-20T03:06:50;66047.28;;;1.60;90.13
44144;BME280;43510;51.920;4.492;2022-11-20T03:09:16;66053.72;;;1.64;90.17
44144;BME280;43510;51.920;4.492;2022-11-20T03:11:42;66054.44;;;1.67;90.60
44144;BME280;43510;51.920;4.492;2022-11-20T03:14:08;66051.88;;;1.67;90.72
44144;BME280;43510;51.920;4.492;2022-11-20T03:16:33;66056.50;;;1.67;90.56
44144;BME280;43510;51.920;4.492;2022-11-20T03:18:59;66052.25;;;1.65;90.95
44144;BME280;43510;51.920;4.492;2022-11-20T03:21:25;66056.66;;;1.69;91.51
44144;BME280;43510;51.920;4.492;2022-11-20T03:23:50;66056.66;;;1.69;91.09
44144;BME280;43510;51.920;4.492;2022-11-20T03:26:18;66054.28;;;1.64;90.73
44144;BME280;43510;51.920;4.492;2022-11-20T03:28:51;66060.00;;;1.72;91.28
44144;BME280;43510;51.920;4.492;2022-11-20T03:31:19;66055.19;;;1.70;90.47
44144;BME280;43510;51.920;4.492;2022-11-20T03:33:44;66053.34;;;1.66;90.36
44144;BME280;43510;51.920;4.492;2022-11-20T03:36:12;66059.63;;;1.67;90.40
44144;BME280;43510;51.920;4.492;2022-11-20T03:38:38;66053.34;;;1.66;90.77
44144;BME280;43510;51.920;4.492;2022-11-20T03:41:15;66057.41;;;1.72;90.60
44144;BME280;43510;51.920;4.492;2022-11-20T03:43:41;66055.38;;;1.66;90.88
44144;BME280;43510;51.920;4.492;2022-11-20T03:46:07;66056.13;;;1.69;90.24
44144;BME280;43510;51.920;4.492;2022-11-20T03:48:33;66057.97;;;1.73;90.64
44144;BME280;43510;51.920;4.492;2022-11-20T03:51:11;66070.31;;;1.79;90.60
44144;BME280;43510;51.920;4.492;2022-11-20T03:53:37;66055.75;;;1.71;90.42
44144;BME280;43510;51.920;4.492;2022-11-20T03:56:03;66057.03;;;1.67;90.68
44144;BME280;43510;51.920;4.492;2022-11-20T03:58:28;66054.09;;;1.69;90.56
44144;BME280;43510;51.920;4.492;2022-11-20T04:00:54;66054.84;;;1.65;90.43
44144;BME280;43510;51.920;4.492;2022-11-20T04:03:20;66046.88;;;1.62;90.21
44144;BME280;43510;51.920;4.492;2022-11-20T04:05:46;66045.41;;;1.56;90.58
44144;BME280;43510;51.920;4.492;2022-11-20T04:08:11;66048.00;;;1.56;90.83
44144;BME280;43510;51.920;4.492;2022-11-20T04:10:37;66039.69;;;1.56;90.38
44144;BME280;43510;51.920;4.492;2022-11-20T04:13:03;66042.28;;;1.56;90.58
44144;BME280;43510;51.920;4.492;2022-11-20T04:15:28;66030.84;;;1.48;91.01
44144;BME280;43510;51.920;4.492;2022-11-20T04:17:54;66042.66;;;1.54;90.88
44144;BME280;43510;51.920;4.492;2022-11-20T04:20:19;66040.44;;;1.52;90.88
44144;BME280;43510;51.920;4.492;2022-11-20T04:22:45;66037.31;;;1.51;90.85
44144;BME280;43510;51.920;4.492;2022-11-20T04:25:10;66033.44;;;1.48;91.00
44144;BME280;43510;51.920;4.492;2022-11-20T04:27:35;66028.28;;;1.48;91.80
44144;BME280;43510;51.920;4.492;2022-11-20T04:30:01;66036.56;;;1.48;91.83
44144;BME280;43510;51.920;4.492;2022-11-20T04:32:26;66038.41;;;1.52;92.45
44144;BME280;43510;51.920;4.492;2022-11-20T04:34:53;66043.22;;;1.54;92.75
44144;BME280;43510;51.920;4.492;2022-11-20T04:37:18;66040.09;;;1.54;93.38
44144;BME280;43510;51.920;4.492;2022-11-20T04:39:43;66034.91;;;1.54;93.69
44144;BME280;43510;51.920;4.492;2022-11-20T04:42:09;66042.28;;;1.56;94.56
44144;BME280;43510;51.920;4.492;2022-11-20T04:44:53;66039.88;;;1.51;94.83
44144;BME280;43510;51.920;4.492;2022-11-20T04:47:19;66043.22;;;1.54;95.11
44144;BME280;43510;51.920;4.492;2022-11-20T04:49:44;66039.34;;;1.51;94.84
44144;BME280;43510;51.920;4.492;2022-11-20T04:52:09;66038.22;;;1.50;94.88
44144;BME280;43510;51.920;4.492;2022-11-20T04:54:35;66037.31;;;1.51;95.63
44144;BME280;43510;51.920;4.492;2022-11-20T04:57:00;66043.94;;;1.57;95.66
44144;BME280;43510;51.920;4.492;2022-11-20T04:59:25;66045.06;;;1.58;95.63
44144;BME280;43510;51.920;4.492;2022-11-20T05:01:52;66044.84;;;1.56;96.16
44144;BME280;43510;51.920;4.492;2022-11-20T05:04:17;66041.56;;;1.53;96.41
44144;BME280;43510;51.920;4.492;2022-11-20T05:06:42;66039.69;;;1.56;96.41
44144;BME280;43510;51.920;4.492;2022-11-20T05:09:08;66042.28;;;1.56;96.40
44144;BME280;43510;51.920;4.492;2022-11-20T05:11:33;66045.97;;;1.57;96.08
44144;BME280;43510;51.920;4.492;2022-11-20T05:13:59;66040.25;;;1.56;96.51
44144;BME280;43510;51.920;4.492;2022-11-20T05:16:25;66038.97;;;1.53;96.17
44144;BME280;43510;51.920;4.492;2022-11-20T05:18:51;66042.66;;;1.54;96.21
44144;BME280;43510;51.920;4.492;2022-11-20T05:21:17;66042.66;;;1.54;96.35
44144;BME280;43510;51.920;4.492;2022-11-20T05:23:44;66041.72;;;1.55;95.75
44144;BME280;43510;51.920;4.492;2022-11-20T05:26:16;66043.78;;;1.55;96.81
44144;BME280;43510;51.920;4.492;2022-11-20T05:28:41;66038.41;;;1.52;96.79
44144;BME280;43510;51.920;4.492;2022-11-20T05:31:13;66040.09;;;1.54;96.71
44144;BME280;43510;51.920;4.492;2022-11-20T05:33:43;66045.06;;;1.58;96.62
44144;BME280;43510;51.920;4.492;2022-11-20T05:36:09;66040.09;;;1.54;96.57
44144;BME280;43510;51.920;4.492;2022-11-20T05:38:35;66048.00;;;1.56;96.02
44144;BME280;43510;51.920;4.492;2022-11-20T05:41:20;66050.03;;;1.63;96.88
44144;BME280;43510;51.920;4.492;2022-11-20T05:43:47;66047.28;;;1.60;95.98
44144;BME280;43510;51.920;4.492;2022-11-20T05:46:14;66045.59;;;1.59;96.27
44144;BME280;43510;51.920;4.492;2022-11-20T05:48:41;66047.09;;;1.58;96.47
44144;BME280;43510;51.920;4.492;2022-11-20T05:51:09;66044.84;;;1.56;96.42
44144;BME280;43510;51.920;4.492;2022-11-20T05:53:36;66041.72;;;1.55;96.59
44144;BME280;43510;51.920;4.492;2022-11-20T05:56:21;66056.13;;;1.69;97.01
44144;BME280;43510;51.920;4.492;2022-11-20T05:58:47;66046.88;;;1.62;96.50
44144;BME280;43510;51.920;4.492;2022-11-20T06:03:39;66048.38;;;1.61;96.15
44144;BME280;43510;51.920;4.492;2022-11-20T06:06:05;66046.34;;;1.62;96.05
44144;BME280;43510;51.920;4.492;2022-11-20T06:08:32;66051.88;;;1.67;96.49
44144;BME280;43510;51.920;4.492;2022-11-20T06:10:58;66058.88;;;1.71;96.79
44144;BME280;43510;51.920;4.492;2022-11-20T06:13:24;66058.16;;;1.75;97.10
44144;BME280;43510;51.920;4.492;2022-11-20T06:15:50;66048.56;;;1.64;97.63
44144;BME280;43510;51.920;4.492;2022-11-20T06:18:16;66063.66;;;1.73;98.34
44144;BME280;43510;51.920;4.492;2022-11-20T06:20:44;66056.66;;;1.69;98.88
44144;BME280;43510;51.920;4.492;2022-11-20T06:23:09;66060.56;;;1.73;98.62
44144;BME280;43510;51.920;4.492;2022-11-20T06:25:41;66067.56;;;1.77;99.03
44144;BME280;43510;51.920;4.492;2022-11-20T06:28:07;66063.31;;;1.75;99.37
44144;BME280;43510;51.920;4.492;2022-11-20T06:30:33;66062.03;;;1.72;99.77
44144;BME280;43510;51.920;4.492;2022-11-20T06:32:59;66060.38;;;1.70;99.65
44144;BME280;43510;51.920;4.492;2022-11-20T06:35:25;66056.31;;;1.71;99.80
44144;BME280;43510;51.920;4.492;2022-11-20T06:37:50;66056.84;;;1.72;99.59
44144;BME280;43510;51.920;4.492;2022-11-20T06:40:16;66060.38;;;1.70;99.89
44144;BME280;43510;51.920;4.492;2022-11-20T06:42:41;66059.06;;;1.74;99.50
44144;BME280;43510;51.920;4.492;2022-11-20T06:45:07;66069.41;;;1.81;99.20
44144;BME280;43510;51.920;4.492;2022-11-20T06:47:33;66074.94;;;1.86;99.42
44144;BME280;43510;51.920;4.492;2022-11-20T06:49:58;66081.00;;;1.91;98.93
44144;BME280;43510;51.920;4.492;2022-11-20T06:52:24;66082.50;;;1.90;99.43
44144;BME280;43510;51.920;4.492;2022-11-20T06:54:49;66090.78;;;1.98;98.75
44144;BME280;43510;51.920;4.492;2022-11-20T06:57:14;66093.56;;;2.00;98.94
44144;BME280;43510;51.920;4.492;2022-11-20T06:59:40;66094.28;;;2.03;99.34
44144;BME280;43510;51.920;4.492;2022-11-20T07:02:09;66098.75;;;2.08;99.93
44144;BME280;43510;51.920;4.492;2022-11-20T07:04:35;66104.63;;;2.11;99.25
44144;BME280;43510;51.920;4.492;2022-11-20T07:07:00;66107.56;;;2.16;99.76
44144;BME280;43510;51.920;4.492;2022-11-20T07:09:25;66116.25;;;2.21;99.83
44144;BME280;43510;51.920;4.492;2022-11-20T07:11:51;66115.16;;;2.20;99.59
44144;BME280;43510;51.920;4.492;2022-11-20T07:14:16;66115.69;;;2.21;99.52
44144;BME280;43510;51.920;4.492;2022-11-20T07:16:41;66108.31;;;2.19;99.71
44144;BME280;43510;51.920;4.492;2022-11-20T07:19:07;66111.84;;;2.17;99.62
44144;BME280;43510;51.920;4.492;2022-11-20T07:21:32;66111.63;;;2.22;99.75
44144;BME280;43510;51.920;4.492;2022-11-20T07:23:58;66115.69;;;2.21;99.50
44144;BME280;43510;51.920;4.492;2022-11-20T07:26:23;66110.16;;;2.16;99.35
44144;BME280;43510;51.920;4.492;2022-11-20T07:28:48;66104.28;;;2.13;99.01
44144;BME280;43510;51.920;4.492;2022-11-20T07:31:16;66100.75;;;2.07;98.63
44144;BME280;43510;51.920;4.492;2022-11-20T07:33:42;66089.88;;;1.99;98.85
44144;BME280;43510;51.920;4.492;2022-11-20T07:36:07;66102.78;;;2.14;97.80
44144;BME280;43510;51.920;4.492;2022-11-20T07:38:34;66113.50;;;2.19;98.45
44144;BME280;43510;51.920;4.492;2022-11-20T07:40:59;66101.13;;;2.12;98.14
44144;BME280;43510;51.920;4.492;2022-11-20T07:43:26;66112.75;;;2.23;97.93
44144;BME280;43510;51.920;4.492;2022-11-20T07:45:55;66111.09;;;2.21;98.00
44144;BME280;43510;51.920;4.492;2022-11-20T07:48:20;66127.91;;;2.32;98.50
44144;BME280;43510;51.920;4.492;2022-11-20T07:50:55;66133.59;;;2.39;98.57
44144;BME280;43510;51.920;4.492;2022-11-20T07:53:22;66132.69;;;2.41;98.17
44144;BME280;43510;51.920;4.492;2022-11-20T07:55:48;66139.13;;;2.44;98.21
44144;BME280;43510;51.920;4.492;2022-11-20T07:58:14;66140.44;;;2.48;98.23
44144;BME280;43510;51.920;4.492;2022-11-20T08:00:40;66136.38;;;2.42;98.13
44144;BME280;43510;51.920;4.492;2022-11-20T08:03:06;66142.66;;;2.50;98.67
44144;BME280;43510;51.920;4.492;2022-11-20T08:05:32;66167.94;;;2.71;98.80
44144;BME280;43510;51.920;4.492;2022-11-20T08:07:58;66160.19;;;2.64;99.12
44144;BME280;43510;51.920;4.492;2022-11-20T08:10:24;66164.78;;;2.70;98.63
44144;BME280;43510;51.920;4.492;2022-11-20T08:12:51;66166.81;;;2.70;98.57
44144;BME280;43510;51.920;4.492;2022-11-20T08:15:36;66176.81;;;2.79;98.07
44144;BME280;43510;51.920;4.492;2022-11-20T08:18:04;66182.72;;;2.89;98.43
44144;BME280;43510;51.920;4.492;2022-11-20T08:20:30;66193.25;;;2.92;98.55
44144;BME280;43510;51.920;4.492;2022-11-20T08:23:05;66198.03;;;3.01;98.70
44144;BME280;43510;51.920;4.492;2022-11-20T08:25:32;66207.06;;;3.04;97.67
44144;BME280;43510;51.920;4.492;2022-11-20T08:27:59;66204.69;;;3.07;98.21
44144;BME280;43510;51.920;4.492;2022-11-20T08:30:26;66206.91;;;3.09;98.21
44144;BME280;43510;51.920;4.492;2022-11-20T08:32:52;66208.56;;;3.10;97.89
44144;BME280;43510;51.920;4.492;2022-11-20T08:35:18;66209.66;;;3.11;97.64
44144;BME280;43510;51.920;4.492;2022-11-20T08:37:47;66209.66;;;3.11;97.91
44144;BME280;43510;51.920;4.492;2022-11-20T08:40:13;66213.56;;;3.15;98.03
44144;BME280;43510;51.920;4.492;2022-11-20T08:42:46;66223.16;;;3.19;98.06
44144;BME280;43510;51.920;4.492;2022-11-20T08:45:13;66216.88;;;3.18;97.54
44144;BME280;43510;51.920;4.492;2022-11-20T08:47:47;66218.72;;;3.15;98.04
44144;BME280;43510;51.920;4.492;2022-11-20T08:50:15;66222.22;;;3.20;97.61
44144;BME280;43510;51.920;4.492;2022-11-20T08:52:40;66217.97;;;3.19;97.89
44144;BME280;43510;51.920;4.492;2022-11-20T08:55:07;66226.84;;;3.27;97.73
44144;BME280;43510;51.920;4.492;2022-11-20T08:57:33;66236.09;;;3.33;97.50
44144;BME280;43510;51.920;4.492;2022-11-20T08:59:59;66234.59;;;3.34;97.25
44144;BME280;43510;51.920;4.492;2022-11-20T09:02:24;66243.84;;;3.40;97.67
44144;BME280;43510;51.920;4.492;2022-11-20T09:04:50;66253.63;;;3.47;98.06
44144;BME280;43510;51.920;4.492;2022-11-20T09:07:15;66264.53;;;3.54;97.68
44144;BME280;43510;51.920;4.492;2022-11-20T09:09:41;66271.38;;;3.63;97.60
44144;BME280;43510;51.920;4.492;2022-11-20T09:12:09;66267.47;;;3.66;97.86
44144;BME280;43510;51.920;4.492;2022-11-20T09:14:40;66277.09;;;3.70;97.90
44144;BME280;43510;51.920;4.492;2022-11-20T09:17:16;66276.91;;;3.68;98.39
44144;BME280;43510;51.920;4.492;2022-11-20T09:19:56;66290.97;;;3.83;98.51
44144;BME280;43510;51.920;4.492;2022-11-20T09:22:29;66295.22;;;3.85;98.39
44144;BME280;43510;51.920;4.492;2022-11-20T09:25:00;66265.66;;;3.62;97.95
44144;BME280;43510;51.920;4.492;2022-11-20T09:27:56;66295.94;;;3.88;98.32
44144;BME280;43510;51.920;4.492;2022-11-20T09:30:52;66323.66;;;4.13;97.74
44144;BME280;43510;51.920;4.492;2022-11-20T09:33:21;66314.81;;;4.05;97.53
44144;BME280;43510;51.920;4.492;2022-11-20T09:36:12;66321.84;;;4.09;98.24
44144;BME280;43510;51.920;4.492;2022-11-20T09:38:51;66311.66;;;4.04;97.40
44144;BME280;43510;51.920;4.492;2022-11-20T09:44:48;66319.78;;;4.09;99.00
44144;BME280;43510;51.920;4.492;2022-11-20T09:50:31;66312.94;;;4.01;99.68
44144;BME280;43510;51.920;4.492;2022-11-20T09:56:02;66326.44;;;4.16;100.00
44144;BME280;43510;51.920;4.492;2022-11-20T09:58:46;66328.50;;;4.15;100.00
44144;BME280;43510;51.920;4.492;2022-11-20T10:01:19;66335.31;;;4.24;99.93
44144;BME280;43510;51.920;4.492;2022-11-20T10:04:06;66340.31;;;4.28;100.00
44144;BME280;43510;51.920;4.492;2022-11-20T10:07:11;66360.28;;;4.46;100.00
44144;BME280;43510;51.920;4.492;2022-11-20T10:09:40;66335.69;;;4.29;100.00
44144;BME280;43510;51.920;4.492;2022-11-20T10:12:19;66338.81;;;4.29;99.59
44144;BME280;43510;51.920;4.492;2022-11-20T10:18:09;66343.28;;;4.33;100.00
44144;BME280;43510;51.920;4.492;2022-11-20T10:20:42;66330.88;;;4.20;100.00
44144;BME280;43510;51.920;4.492;2022-11-20T10:26:22;66318.88;;;4.11;100.00
44144;BME280;43510;51.920;4.492;2022-11-20T10:31:50;66313.16;;;4.03;100.00
44144;BME280;43510;51.920;4.492;2022-11-20T10:34:46;66340.31;;;4.28;100.00
44144;BME280;43510;51.920;4.492;2022-11-20T10:38:05;66335.50;;;4.19;100.00
44144;BME280;43510;51.920;4.492;2022-11-20T10:41:05;66337.34;;;4.23;100.00
44144;BME280;43510;51.920;4.492;2022-11-20T10:44:21;66341.03;;;4.31;100.00
44144;BME280;43510;51.920;4.492;2022-11-20T10:47:24;66323.84;;;4.16;100.00
44144;BME280;43510;51.920;4.492;2022-11-20T10:50:21;66305.94;;;3.97;100.00
44144;BME280;43510;51.920;4.492;2022-11-20T11:00:35;66335.31;;;4.24;100.00
44144;BME280;43510;51.920;4.492;2022-11-20T11:03:55;66324.78;;;4.14;100.00
44144;BME280;43510;51.920;4.492;2022-11-20T11:17:31;66407.06;;;4.91;100.00
44144;BME280;43510;51.920;4.492;2022-11-20T11:20:34;66401.34;;;4.84;100.00
44144;BME280;43510;51.920;4.492;2022-11-20T11:28:18;66447.75;;;5.31;100.00
44144;BME280;43510;51.920;4.492;2022-11-20T11:31:39;66427.06;;;5.10;100.00
44144;BME280;43510;51.920;4.492;2022-11-20T11:34:28;66453.13;;;5.33;100.00
44144;BME280;43510;51.920;4.492;2022-11-20T11:38:07;66482.03;;;5.60;100.00
44144;BME280;43510;51.920;4.492;2022-11-20T11:41:02;66477.56;;;5.56;100.00
44144;BME280;43510;51.920;4.492;2022-11-20T11:43:50;66494.59;;;5.69;100.00
44144;BME280;43510;51.920;4.492;2022-11-20T11:46:49;66498.66;;;5.75;100.00
44144;BME280;43510;51.920;4.492;2022-11-20T11:49:41;66504.44;;;5.75;100.00
44144;BME280;43510;51.920;4.492;2022-11-20T11:52:18;66503.66;;;5.80;100.00
44144;BME280;43510;51.920;4.492;2022-11-20T11:55:14;66516.09;;;5.86;100.00
44144;BME280;43510;51.920;4.492;2022-11-20T12:04:34;66503.50;;;5.77;100.00
44144;BME280;43510;51.920;4.492;2022-11-20T12:07:19;66504.81;;;5.73;100.00
44144;BME280;43510;51.920;4.492;2022-11-20T12:13:58;66515.75;;;5.88;100.00
44144;BME280;43510;51.920;4.492;2022-11-20T12:17:04;66495.34;;;5.72;100.00
44144;BME280;43510;51.920;4.492;2022-11-20T12:20:11;66466.47;;;5.46;100.00
44144;BME280;43510;51.920;4.492;2022-11-20T12:26:52;66484.44;;;5.57;100.00
44144;BME280;43510;51.920;4.492;2022-11-20T12:29:54;66454.97;;;5.38;100.00
44144;BME280;43510;51.920;4.492;2022-11-20T12:34:23;66451.31;;;5.29;100.00
44144;BME280;43510;51.920;4.492;2022-11-20T12:40:11;66464.63;;;5.42;100.00
44144;BME280;43510;51.920;4.492;2022-11-20T12:43:21;66464.78;;;5.44;100.00
44144;BME280;43510;51.920;4.492;2022-11-20T12:53:03;66465.34;;;5.45;100.00
44144;BME280;43510;51.920;4.492;2022-11-20T13:02:14;66458.69;;;5.39;100.00
44144;BME280;43510;51.920;4.492;2022-11-20T13:07:47;66480.00;;;5.53;100.00
44144;BME280;43510;51.920;4.492;2022-11-20T13:10:49;66468.69;;;5.48;100.00
44144;BME280;43510;51.920;4.492;2022-11-20T13:20:19;66480.56;;;5.54;100.00
44144;BME280;43510;51.920;4.492;2022-11-20T13:26:20;66484.97;;;5.65;100.00
44144;BME280;43510;51.920;4.492;2022-11-20T13:29:33;66467.59;;;5.47;100.00
44144;BME280;43510;51.920;4.492;2022-11-20T13:32:50;66457.41;;;5.35;100.00
44144;BME280;43510;51.920;4.492;2022-11-20T13:35:53;66468.13;;;5.47;100.00
44144;BME280;43510;51.920;4.492;2022-11-20T13:38:51;66488.88;;;5.61;100.00
44144;BME280;43510;51.920;4.492;2022-11-20T13:42:23;66470.91;;;5.50;100.00
44144;BME280;43510;51.920;4.492;2022-11-20T14:03:23;66494.25;;;5.71;100.00
44144;BME280;43510;51.920;4.492;2022-11-20T14:06:01;66486.47;;;5.64;100.00
44144;BME280;43510;51.920;4.492;2022-11-20T14:08:47;66496.44;;;5.73;100.00
44144;BME280;43510;51.920;4.492;2022-11-20T14:11:29;66488.69;;;5.66;100.00
44144;BME280;43510;51.920;4.492;2022-11-20T14:14:49;66509.06;;;5.82;100.00
44144;BME280;43510;51.920;4.492;2022-11-20T14:17:42;66503.50;;;5.77;100.00
44144;BME280;43510;51.920;4.492;2022-11-20T14:20:16;66480.34;;;5.58;100.00
44144;BME280;43510;51.920;4.492;2022-11-20T14:22:55;66501.28;;;5.75;100.00
44144;BME280;43510;51.920;4.492;2022-11-20T14:25:59;66473.50;;;5.50;100.00
44144;BME280;43510;51.920;4.492;2022-11-20T14:28:30;66467.59;;;5.47;100.00
44144;BME280;43510;51.920;4.492;2022-11-20T14:31:21;66469.78;;;5.49;100.00
44144;BME280;43510;51.920;4.492;2022-11-20T14:33:50;66493.69;;;5.70;100.00
44144;BME280;43510;51.920;4.492;2022-11-20T14:36:24;66468.50;;;5.45;100.00
44144;BME280;43510;51.920;4.492;2022-11-20T14:39:36;66482.75;;;5.56;100.00
44144;BME280;43510;51.920;4.492;2022-11-20T14:42:54;66499.22;;;5.75;100.00
44144;BME280;43510;51.920;4.492;2022-11-20T14:46:03;66483.66;;;5.61;100.00
44144;BME280;43510;51.920;4.492;2022-11-20T14:49:05;66526.13;;;5.95;100.00
44144;BME280;43510;51.920;4.492;2022-11-20T14:51:57;66494.59;;;5.69;100.00
44144;BME280;43510;51.920;4.492;2022-11-20T14:54:53;66492.00;;;5.69;100.00
44144;BME280;43510;51.920;4.492;2022-11-20T14:57:36;66482.75;;;5.56;100.00
44144;BME280;43510;51.920;4.492;2022-11-20T15:00:24;66507.94;;;5.81;100.00
44144;BME280;43510;51.920;4.492;2022-11-20T15:03:14;66510.88;;;5.86;100.00
44144;BME280;43510;51.920;4.492;2022-11-20T15:06:16;66497.56;;;5.74;100.00
44144;BME280;43510;51.920;4.492;2022-11-20T15:13:37;66528.69;;;6.02;100.00
44144;BME280;43510;51.920;4.492;2022-11-20T15:16:29;66498.13;;;5.74;100.00
44144;BME280;43510;51.920;4.492;2022-11-20T15:19:17;66488.69;;;5.66;100.00
44144;BME280;43510;51.920;4.492;2022-11-20T15:21:59;66504.44;;;5.75;100.00
44144;BME280;43510;51.920;4.492;2022-11-20T15:24:43;66500.72;;;5.74;100.00
44144;BME280;43510;51.920;4.492;2022-11-20T15:27:22;66517.56;;;5.92;100.00
44144;BME280;43510;51.920;4.492;2022-11-20T15:30:17;66515.75;;;5.88;100.00
44144;BME280;43510;51.920;4.492;2022-11-20T15:32:51;66502.00;;;5.78;100.00
44144;BME280;43510;51.920;4.492;2022-11-20T15:35:45;66512.22;;;5.83;100.00
44144;BME280;43510;51.920;4.492;2022-11-20T15:38:37;66528.69;;;6.02;100.00
44144;BME280;43510;51.920;4.492;2022-11-20T15:41:40;66524.63;;;5.96;100.00
44144;BME280;43510;51.920;4.492;2022-11-20T15:44:51;66534.63;;;6.05;100.00